createdAt,value
2022-10-29T00:00:57.247Z,97303.50
2022-10-29T00:03:25.279Z,97314.03
2022-10-29T00:06:04.450Z,97302.97
2022-10-29T00:08:34.805Z,97308.03
2022-10-29T00:11:20.365Z,97302.38
2022-10-29T00:13:52.552Z,97301.53
2022-10-29T00:16:23.131Z,97303.53
2022-10-29T00:18:50.023Z,97301.50
2022-10-29T00:21:20.192Z,97308.00
2022-10-29T00:23:48.098Z,97300.28
2022-10-29T00:26:15.903Z,97300.28
2022-10-29T00:28:42.908Z,97304.31
2022-10-29T00:31:15.912Z,97307.50
2022-10-29T00:33:43.342Z,97308.16
2022-10-29T00:36:16.085Z,97301.03
2022-10-29T00:38:43.480Z,97304.72
2022-10-29T00:41:16.531Z,97304.72
2022-10-29T00:44:15.347Z,97307.16
2022-10-29T00:46:47.275Z,97302.31
2022-10-29T00:49:15.675Z,97301.91
2022-10-29T00:51:42.827Z,97309.06
2022-10-29T00:54:12.898Z,97299.94
2022-10-29T00:57:13.693Z,97308.50
2022-10-29T00:59:42.656Z,97304.03
2022-10-29T01:02:10.544Z,97301.59
2022-10-29T01:04:38.968Z,97305.06
2022-10-29T01:07:06.471Z,97297.50
2022-10-29T01:09:33.377Z,97305.63
2022-10-29T01:12:21.517Z,97302.94
2022-10-29T01:15:07.095Z,97304.72
2022-10-29T01:18:07.544Z,97305.41
2022-10-29T01:21:14.365Z,97305.69
2022-10-29T01:24:37.155Z,97315.78
2022-10-29T01:27:26.452Z,97321.06
2022-10-29T01:30:21.447Z,97315.00
2022-10-29T01:32:54.169Z,97308.09
2022-10-29T01:35:30.228Z,97316.00
2022-10-29T01:38:11.454Z,97305.56
2022-10-29T01:41:15.034Z,97311.19
2022-10-29T01:43:52.104Z,97308.84
2022-10-29T01:46:42.589Z,97294.84
2022-10-29T01:49:22.705Z,97298.69
2022-10-29T01:51:50.959Z,97296.81
2022-10-29T01:54:17.764Z,97310.00
2022-10-29T01:56:52.660Z,97306.38
2022-10-29T01:59:35.227Z,97304.09
2022-10-29T02:02:39.552Z,97306.91
2022-10-29T02:05:44.722Z,97297.09
2022-10-29T02:08:20.206Z,97308.47
2022-10-29T02:11:23.842Z,97302.84
2022-10-29T02:14:07.353Z,97300.81
2022-10-29T02:16:34.831Z,97297.88
2022-10-29T02:19:02.082Z,97294.41
2022-10-29T02:21:28.850Z,97295.41
2022-10-29T02:23:55.700Z,97296.88
2022-10-29T02:26:22.583Z,97304.78
2022-10-29T02:28:49.428Z,97297.69
2022-10-29T02:31:16.250Z,97295.28
2022-10-29T02:33:43.042Z,97283.09
2022-10-29T02:36:09.951Z,97293.53
2022-10-29T02:38:36.751Z,97291.31
2022-10-29T02:41:03.536Z,97301.81
2022-10-29T02:43:30.327Z,97298.16
2022-10-29T02:46:19.160Z,97290.84
2022-10-29T02:48:46.400Z,97285.22
2022-10-29T02:51:13.543Z,97294.72
2022-10-29T02:53:40.645Z,97292.88
2022-10-29T02:56:07.944Z,97287.41
2022-10-29T02:58:34.876Z,97283.00
2022-10-29T03:01:02.189Z,97279.00
2022-10-29T03:03:29.503Z,97275.91
2022-10-29T03:05:56.292Z,97261.34
2022-10-29T03:08:23.138Z,97274.25
2022-10-29T03:10:49.928Z,97288.59
2022-10-29T03:13:17.914Z,97286.47
2022-10-29T03:15:46.234Z,97278.66
2022-10-29T03:18:13.065Z,97276.59
2022-10-29T03:20:39.951Z,97273.63
2022-10-29T03:23:06.779Z,97277.13
2022-10-29T03:25:33.607Z,97276.13
2022-10-29T03:28:00.371Z,97275.03
2022-10-29T03:30:27.198Z,97270.38
2022-10-29T03:32:54.394Z,97285.13
2022-10-29T03:35:21.715Z,97289.41
2022-10-29T03:37:52.464Z,97289.91
2022-10-29T03:40:20.282Z,97279.41
2022-10-29T03:42:47.068Z,97283.84
2022-10-29T03:45:14.213Z,97290.66
2022-10-29T03:47:41.063Z,97297.13
2022-10-29T03:50:08.887Z,97288.72
2022-10-29T03:52:35.997Z,97278.66
2022-10-29T03:55:03.283Z,97281.06
2022-10-29T03:57:30.102Z,97272.75
2022-10-29T03:59:56.936Z,97267.47
2022-10-29T04:02:24.789Z,97266.31
2022-10-29T04:04:51.627Z,97275.78
2022-10-29T04:07:18.825Z,97286.47
2022-10-29T04:09:45.665Z,97291.91
2022-10-29T04:12:12.423Z,97297.69
2022-10-29T04:14:44.473Z,97294.91
2022-10-29T04:17:12.722Z,97295.00
2022-10-29T04:19:40.449Z,97299.97
2022-10-29T04:30:27.874Z,97284.63
2022-10-29T04:32:59.578Z,97283.84
2022-10-29T04:35:28.858Z,97278.81
2022-10-29T04:37:55.790Z,97279.44
2022-10-29T04:40:24.757Z,97287.38
2022-10-29T04:42:51.586Z,97284.72
2022-10-29T04:45:18.756Z,97285.09
2022-10-29T04:47:45.958Z,97290.13
2022-10-29T04:50:12.786Z,97281.34
2022-10-29T04:52:39.630Z,97284.06
2022-10-29T04:55:06.804Z,97281.19
2022-10-29T04:57:33.617Z,97277.53
2022-10-29T05:00:00.428Z,97276.03
2022-10-29T05:02:27.219Z,97274.03
2022-10-29T05:04:54.007Z,97275.09
2022-10-29T05:07:20.767Z,97269.88
2022-10-29T05:09:47.572Z,97272.06
2022-10-29T05:12:14.357Z,97267.19
2022-10-29T05:14:41.136Z,97274.00
2022-10-29T05:19:39.666Z,97281.19
2022-10-29T05:22:06.450Z,97284.06
2022-10-29T05:24:33.217Z,97270.88
2022-10-29T05:27:00.088Z,97268.84
2022-10-29T05:29:26.891Z,97276.00
2022-10-29T05:31:54.587Z,97276.03
2022-10-29T05:34:21.581Z,97281.78
2022-10-29T05:36:48.603Z,97284.22
2022-10-29T05:39:15.651Z,97283.41
2022-10-29T05:41:42.432Z,97285.03
2022-10-29T05:44:09.648Z,97283.63
2022-10-29T05:46:36.514Z,97283.00
2022-10-29T05:49:04.168Z,97292.34
2022-10-29T05:51:31.029Z,97292.28
2022-10-29T05:53:57.814Z,97297.13
2022-10-29T05:56:24.607Z,97295.50
2022-10-29T05:58:51.708Z,97301.41
2022-10-29T06:01:19.846Z,97298.75
2022-10-29T06:03:47.419Z,97296.38
2022-10-29T06:06:14.312Z,97287.41
2022-10-29T06:08:41.183Z,97280.53
2022-10-29T06:11:08.145Z,97280.91
2022-10-29T06:13:35.990Z,97291.66
2022-10-29T06:16:03.042Z,97289.81
2022-10-29T06:18:30.064Z,97291.09
2022-10-29T06:21:00.548Z,97293.97
2022-10-29T06:23:28.642Z,97302.50
2022-10-29T06:25:55.459Z,97306.28
2022-10-29T06:28:22.278Z,97305.09
2022-10-29T06:30:50.432Z,97319.94
2022-10-29T06:33:18.677Z,97319.31
2022-10-29T06:35:45.999Z,97320.94
2022-10-29T06:38:13.244Z,97316.47
2022-10-29T06:40:41.595Z,97321.97
2022-10-29T06:43:11.747Z,97325.88
2022-10-29T06:45:38.679Z,97319.94
2022-10-29T06:48:06.084Z,97318.59
2022-10-29T06:50:33.034Z,97307.72
2022-10-29T06:53:02.764Z,97319.59
2022-10-29T06:55:30.164Z,97315.16
2022-10-29T06:58:02.106Z,97319.88
2022-10-29T07:00:30.284Z,97308.13
2022-10-29T07:02:58.028Z,97311.97
2022-10-29T07:05:26.419Z,97318.91
2022-10-29T07:07:58.405Z,97321.22
2022-10-29T07:10:28.956Z,97315.75
2022-10-29T07:12:56.147Z,97317.44
2022-10-29T07:15:27.233Z,97301.59
2022-10-29T07:18:06.064Z,97310.94
2022-10-29T07:20:36.512Z,97306.81
2022-10-29T07:23:03.288Z,97305.53
2022-10-29T07:25:31.882Z,97309.56
2022-10-29T07:28:12.278Z,97314.84
2022-10-29T07:30:40.135Z,97304.63
2022-10-29T07:33:07.128Z,97316.47
2022-10-29T07:35:34.860Z,97313.44
2022-10-29T07:38:08.784Z,97313.63
2022-10-29T07:40:38.907Z,97325.53
2022-10-29T07:43:05.950Z,97327.13
2022-10-29T07:45:33.713Z,97334.69
2022-10-29T07:48:03.124Z,97336.13
2022-10-29T07:50:31.520Z,97325.47
2022-10-29T07:53:03.008Z,97327.94
2022-10-29T07:58:07.956Z,97322.38
2022-10-29T08:00:37.721Z,97320.81
2022-10-29T08:03:05.111Z,97320.22
2022-10-29T08:05:32.149Z,97314.88
2022-10-29T08:08:00.043Z,97318.47
2022-10-29T08:10:28.441Z,97316.78
2022-10-29T08:12:58.943Z,97330.66
2022-10-29T08:15:27.972Z,97323.66
2022-10-29T08:17:55.280Z,97318.25
2022-10-29T08:20:25.063Z,97309.19
2022-10-29T08:22:51.925Z,97319.81
2022-10-29T08:25:18.962Z,97314.03
2022-10-29T08:27:45.876Z,97310.25
2022-10-29T08:30:14.183Z,97296.72
2022-10-29T08:32:47.511Z,97301.28
2022-10-29T08:35:15.289Z,97304.53
2022-10-29T08:37:44.287Z,97310.16
2022-10-29T08:40:30.412Z,97312.56
2022-10-29T08:43:34.572Z,97309.94
2022-10-29T08:46:01.705Z,97314.97
2022-10-29T08:48:34.250Z,97320.28
2022-10-29T08:51:30.455Z,97316.91
2022-10-29T08:54:25.480Z,97322.97
2022-10-29T08:56:54.144Z,97323.25
2022-10-29T08:59:24.264Z,97315.78
2022-10-29T09:01:53.655Z,97310.03
2022-10-29T09:04:31.692Z,97314.38
2022-10-29T09:07:26.048Z,97310.59
2022-10-29T09:10:20.587Z,97312.06
2022-10-29T09:13:25.960Z,97311.16
2022-10-29T09:16:24.367Z,97315.59
2022-10-29T09:19:03.491Z,97313.31
2022-10-29T09:21:48.896Z,97317.09
2022-10-29T09:24:30.653Z,97303.22
2022-10-29T09:27:09.717Z,97309.50
2022-10-29T09:30:03.353Z,97302.56
2022-10-29T09:32:47.782Z,97302.22
2022-10-29T09:35:19.282Z,97307.69
2022-10-29T09:37:59.380Z,97307.44
2022-10-29T09:40:34.342Z,97305.22
2022-10-29T09:43:13.268Z,97304.66
2022-10-29T09:45:48.811Z,97312.97
2022-10-29T09:48:31.423Z,97300.88
2022-10-29T09:51:11.210Z,97296.16
2022-10-29T09:53:37.994Z,97306.09
2022-10-29T09:56:08.376Z,97292.97
2022-10-29T09:58:41.636Z,97288.63
2022-10-29T10:01:08.589Z,97288.63
2022-10-29T10:03:45.782Z,97289.16
2022-10-29T10:06:16.190Z,97280.94
2022-10-29T10:09:04.470Z,97285.38
2022-10-29T10:11:40.042Z,97272.19
2022-10-29T10:14:20.712Z,97273.31
2022-10-29T10:17:00.435Z,97261.09
2022-10-29T10:19:31.197Z,97261.34
2022-10-29T10:22:04.529Z,97259.44
2022-10-29T10:24:38.212Z,97258.06
2022-10-29T10:27:20.169Z,97260.47
2022-10-29T10:30:04.939Z,97253.28
2022-10-29T10:32:32.407Z,97252.25
2022-10-29T10:34:59.192Z,97253.31
2022-10-29T10:37:26.090Z,97245.59
2022-10-29T10:40:04.850Z,97246.28
2022-10-29T10:42:37.131Z,97231.75
2022-10-29T10:45:23.027Z,97236.81
2022-10-29T10:47:57.427Z,97234.75
2022-10-29T10:50:34.013Z,97231.75
2022-10-29T10:53:05.970Z,97215.06
2022-10-29T10:55:37.937Z,97223.03
2022-10-29T10:58:42.939Z,97219.16
2022-10-29T11:01:20.689Z,97218.94
2022-10-29T11:03:52.017Z,97213.06
2022-10-29T11:06:29.878Z,97212.28
2022-10-29T11:09:35.929Z,97212.03
2022-10-29T11:12:11.695Z,97198.88
2022-10-29T11:14:49.009Z,97200.13
2022-10-29T11:17:52.916Z,97196.31
2022-10-29T11:20:35.681Z,97189.88
2022-10-29T11:23:25.503Z,97186.41
2022-10-29T11:26:08.175Z,97190.44
2022-10-29T11:28:53.970Z,97188.31
2022-10-29T11:31:31.087Z,97187.25
2022-10-29T11:34:39.226Z,97179.66
2022-10-29T11:37:27.770Z,97174.66
2022-10-29T11:40:04.460Z,97175.47
2022-10-29T11:42:31.399Z,97173.59
2022-10-29T11:45:00.967Z,97166.56
2022-10-29T11:47:39.660Z,97167.91
2022-10-29T11:50:28.228Z,97167.69
2022-10-29T11:53:02.576Z,97159.59
2022-10-29T11:55:43.279Z,97155.91
2022-10-29T11:58:37.974Z,97137.81
2022-10-29T12:01:50.462Z,97145.25
2022-10-29T12:04:32.843Z,97135.22
2022-10-29T12:07:18.344Z,97131.78
2022-10-29T12:10:30.419Z,97127.13
2022-10-29T12:13:33.299Z,97122.72
2022-10-29T12:16:33.834Z,97122.78
2022-10-29T12:19:14.957Z,97117.91
2022-10-29T12:22:32.134Z,97106.03
2022-10-29T12:25:19.018Z,97104.91
2022-10-29T12:28:00.895Z,97108.13
2022-10-29T12:30:34.685Z,97109.22
2022-10-29T12:33:42.073Z,97100.06
2022-10-29T12:36:48.931Z,97105.09
2022-10-29T12:39:45.555Z,97102.97
2022-10-29T12:42:26.269Z,97098.56
2022-10-29T12:45:26.149Z,97099.28
2022-10-29T12:47:57.294Z,97087.94
2022-10-29T12:51:05.653Z,97095.78
2022-10-29T12:53:54.031Z,97081.03
2022-10-29T12:56:22.883Z,97080.31
2022-10-29T12:58:57.051Z,97074.53
2022-10-29T13:01:50.017Z,97074.50
2022-10-29T13:04:34.161Z,97074.75
2022-10-29T13:07:05.174Z,97069.69
2022-10-29T13:09:36.491Z,97071.88
2022-10-29T13:12:12.358Z,97072.66
2022-10-29T13:14:56.450Z,97065.81
2022-10-29T13:17:33.077Z,97065.47
2022-10-29T13:20:04.772Z,97063.38
2022-10-29T13:22:57.130Z,97071.53
2022-10-29T13:25:40.355Z,97069.13
2022-10-29T13:28:10.053Z,97068.41
2022-10-29T13:30:39.871Z,97058.53
2022-10-29T13:33:21.926Z,97065.56
2022-10-29T13:36:01.225Z,97065.63
2022-10-29T13:39:19.476Z,97062.81
2022-10-29T13:41:51.167Z,97053.81
2022-10-29T13:44:29.068Z,97051.88
2022-10-29T13:47:21.630Z,97061.47
2022-10-29T13:49:49.489Z,97058.00
2022-10-29T13:52:21.670Z,97051.22
2022-10-29T13:55:03.033Z,97055.78
2022-10-29T13:57:42.745Z,97056.94
2022-10-29T14:00:12.114Z,97051.72
2022-10-29T14:03:14.964Z,97053.22
2022-10-29T14:05:56.084Z,97041.88
2022-10-29T14:08:37.856Z,97045.47
2022-10-29T14:11:18.225Z,97053.41
2022-10-29T14:13:51.219Z,97036.28
2022-10-29T14:16:21.969Z,97040.25
2022-10-29T14:18:50.736Z,97036.97
2022-10-29T14:21:37.864Z,97032.94
2022-10-29T14:24:08.297Z,97043.09
2022-10-29T14:26:39.653Z,97035.09
2022-10-29T14:29:26.046Z,97042.75
2022-10-29T14:32:20.077Z,97045.38
2022-10-29T14:34:51.660Z,97052.44
2022-10-29T14:37:33.498Z,97045.56
2022-10-29T14:40:06.322Z,97044.91
2022-10-29T14:42:43.088Z,97043.44
2022-10-29T14:45:25.343Z,97044.84
2022-10-29T14:47:58.327Z,97041.84
2022-10-29T14:50:30.096Z,97042.44
2022-10-29T14:53:02.054Z,97047.59
2022-10-29T14:55:35.312Z,97047.69
2022-10-29T14:58:28.650Z,97052.63
2022-10-29T15:00:57.329Z,97046.56
2022-10-29T15:03:27.288Z,97041.25
2022-10-29T15:06:18.897Z,97046.41
2022-10-29T15:08:58.152Z,97047.31
2022-10-29T15:11:36.569Z,97048.19
2022-10-29T15:14:23.736Z,97047.31
2022-10-29T15:16:50.560Z,97039.91
2022-10-29T15:19:18.104Z,97047.53
2022-10-29T15:21:45.387Z,97048.03
2022-10-29T15:24:20.753Z,97036.75
2022-10-29T15:26:56.516Z,97046.97
2022-10-29T15:29:32.206Z,97046.34
2022-10-29T15:32:01.067Z,97043.91
2022-10-29T15:34:37.558Z,97036.00
2022-10-29T15:37:19.635Z,97043.66
2022-10-29T15:40:09.501Z,97039.50
2022-10-29T15:42:37.170Z,97031.00
2022-10-29T15:45:15.685Z,97041.31
2022-10-29T15:47:48.281Z,97035.22
2022-10-29T15:50:26.495Z,97036.13
2022-10-29T15:52:57.576Z,97036.41
2022-10-29T15:55:34.401Z,97034.50
2022-10-29T15:58:16.419Z,97032.47
2022-10-29T16:00:43.794Z,97038.34
2022-10-29T16:03:20.103Z,97033.22
2022-10-29T16:06:05.623Z,97021.88
2022-10-29T16:08:42.104Z,97031.19
2022-10-29T16:11:14.455Z,97039.94
2022-10-29T16:13:41.842Z,97037.00
2022-10-29T16:16:25.509Z,97031.00
2022-10-29T16:18:53.312Z,97029.22
2022-10-29T16:21:24.255Z,97039.97
2022-10-29T16:23:51.757Z,97040.22
2022-10-29T16:26:22.829Z,97043.13
2022-10-29T16:28:50.170Z,97040.38
2022-10-29T16:31:26.175Z,97047.50
2022-10-29T16:33:57.501Z,97050.75
2022-10-29T16:36:24.940Z,97050.88
2022-10-29T16:38:51.712Z,97049.25
2022-10-29T16:41:20.119Z,97049.56
2022-10-29T16:43:47.849Z,97050.41
2022-10-29T16:46:15.441Z,97054.13
2022-10-29T16:48:42.275Z,97056.00
2022-10-29T16:51:09.233Z,97055.25
2022-10-29T16:53:36.070Z,97059.81
2022-10-29T16:56:03.460Z,97054.47
2022-10-29T16:58:30.274Z,97054.38
2022-10-29T17:01:05.832Z,97055.81
2022-10-29T17:03:33.169Z,97052.94
2022-10-29T17:06:10.645Z,97044.75
2022-10-29T17:08:38.214Z,97054.50
2022-10-29T17:11:08.724Z,97046.38
2022-10-29T17:13:35.952Z,97051.84
2022-10-29T17:16:14.616Z,97057.66
2022-10-29T17:18:41.470Z,97055.94
2022-10-29T17:21:08.278Z,97056.28
2022-10-29T17:23:35.076Z,97050.25
2022-10-29T17:26:02.243Z,97046.66
2022-10-29T17:28:29.450Z,97052.09
2022-10-29T17:30:56.247Z,97051.06
2022-10-29T17:33:23.087Z,97052.09
2022-10-29T17:35:49.892Z,97062.72
2022-10-29T17:38:16.685Z,97061.94
2022-10-29T17:40:46.096Z,97065.50
2022-10-29T17:43:13.245Z,97065.94
2022-10-29T17:45:42.115Z,97064.31
2022-10-29T17:48:08.926Z,97072.19
2022-10-29T17:50:36.236Z,97067.78
2022-10-29T17:53:03.413Z,97083.63
2022-10-29T17:55:30.480Z,97083.94
2022-10-29T17:57:57.480Z,97067.59
2022-10-29T18:00:25.330Z,97076.41
2022-10-29T18:02:52.146Z,97079.06
2022-10-29T18:05:19.462Z,97079.06
2022-10-29T18:07:46.268Z,97072.50
2022-10-29T18:10:13.112Z,97071.56
2022-10-29T18:12:39.920Z,97079.53
2022-10-29T18:15:07.392Z,97079.59
2022-10-29T18:17:34.249Z,97069.03
2022-10-29T18:20:01.123Z,97078.06
2022-10-29T18:22:28.167Z,97066.25
2022-10-29T18:24:54.983Z,97068.78
2022-10-29T18:27:21.754Z,97064.34
2022-10-29T18:29:48.624Z,97067.75
2022-10-29T18:32:15.685Z,97053.19
2022-10-29T18:34:42.507Z,97060.19
2022-10-29T18:37:09.301Z,97062.34
2022-10-29T18:39:36.135Z,97055.25
2022-10-29T18:42:02.953Z,97056.72
2022-10-29T18:44:29.831Z,97064.13
2022-10-29T18:46:56.609Z,97053.94
2022-10-29T18:49:23.557Z,97055.84
2022-10-29T18:51:50.356Z,97058.56
2022-10-29T18:54:17.250Z,97049.63
2022-10-29T18:56:44.174Z,97048.44
2022-10-29T18:59:15.541Z,97054.84
2022-10-29T19:01:42.487Z,97059.63
2022-10-29T19:04:14.023Z,97059.19
2022-10-29T19:06:41.096Z,97055.19
2022-10-29T19:09:10.728Z,97064.66
2022-10-29T19:11:37.808Z,97066.56
2022-10-29T19:14:08.023Z,97055.66
2022-10-29T19:16:34.990Z,97052.38
2022-10-29T19:21:39.090Z,97052.50
2022-10-29T19:24:07.326Z,97047.66
2022-10-29T19:26:35.899Z,97043.53
2022-10-29T19:29:05.153Z,97045.28
2022-10-29T19:31:34.708Z,97062.94
2022-10-29T19:34:05.925Z,97066.09
2022-10-29T19:36:34.823Z,97056.66
2022-10-29T19:39:01.964Z,97046.78
2022-10-29T19:41:29.314Z,97044.69
2022-10-29T19:44:02.183Z,97055.31
2022-10-29T19:46:29.943Z,97050.75
2022-10-29T19:48:58.312Z,97050.34
2022-10-29T19:51:25.175Z,97047.69
2022-10-29T19:53:52.015Z,97050.00
2022-10-29T19:56:20.526Z,97041.31
2022-10-29T19:58:47.386Z,97040.72
2022-10-29T20:01:17.119Z,97044.41
2022-10-29T20:03:45.106Z,97045.56
2022-10-29T20:06:12.306Z,97037.03
2022-10-29T20:08:39.453Z,97041.53
2022-10-29T20:11:06.677Z,97032.09
2022-10-29T20:13:33.819Z,97040.59
2022-10-29T20:16:06.147Z,97037.47
2022-10-29T20:18:35.388Z,97040.13
2022-10-29T20:21:02.285Z,97041.84
2022-10-29T20:23:29.213Z,97035.75
2022-10-29T20:25:56.000Z,97043.38
2022-10-29T20:28:22.874Z,97051.50
2022-10-29T20:30:49.706Z,97042.91
2022-10-29T20:33:16.482Z,97049.28
2022-10-29T20:35:43.285Z,97042.16
2022-10-29T20:38:10.082Z,97045.28
2022-10-29T20:40:37.054Z,97041.59
2022-10-29T20:43:03.924Z,97048.13
2022-10-29T20:45:30.789Z,97043.03
2022-10-29T20:47:57.800Z,97040.97
2022-10-29T20:50:24.840Z,97038.78
2022-10-29T20:52:53.596Z,97039.16
2022-10-29T20:55:20.448Z,97040.84
2022-10-29T20:57:47.307Z,97038.78
2022-10-29T21:00:14.591Z,97039.81
2022-10-29T21:02:41.487Z,97038.03
2022-10-29T21:05:08.856Z,97034.22
2022-10-29T21:07:35.737Z,97044.66
2022-10-29T21:10:02.520Z,97034.09
2022-10-29T21:12:29.286Z,97043.50
2022-10-29T21:14:56.076Z,97036.41
2022-10-29T21:17:22.868Z,97029.69
2022-10-29T21:19:49.741Z,97034.63
2022-10-29T21:22:18.820Z,97035.47
2022-10-29T21:24:46.111Z,97035.88
2022-10-29T21:27:12.897Z,97034.69
2022-10-29T21:29:39.745Z,97035.13
2022-10-29T21:32:07.753Z,97037.00
2022-10-29T21:34:36.009Z,97029.47
2022-10-29T21:37:02.793Z,97032.97
2022-10-29T21:39:29.846Z,97037.25
2022-10-29T21:41:57.030Z,97031.75
2022-10-29T21:44:23.804Z,97038.22
2022-10-29T21:46:50.658Z,97039.38
2022-10-29T21:49:17.455Z,97041.41
2022-10-29T21:51:44.227Z,97036.56
2022-10-29T21:54:11.040Z,97034.75
2022-10-29T21:56:37.842Z,97032.09
2022-10-29T21:59:04.602Z,97037.44
2022-10-29T22:01:31.539Z,97031.13
2022-10-29T22:03:58.427Z,97030.94
2022-10-29T22:06:28.325Z,97030.13
2022-10-29T22:08:58.577Z,97025.91
2022-10-29T22:11:27.260Z,97025.16
2022-10-29T22:13:54.944Z,97028.00
2022-10-29T22:16:22.801Z,97023.72
2022-10-29T22:18:50.893Z,97024.16
2022-10-29T22:21:21.342Z,97032.31
2022-10-29T22:23:51.571Z,97022.09
2022-10-29T22:26:23.847Z,97029.03
2022-10-29T22:28:50.698Z,97020.91
2022-10-29T22:31:19.875Z,97025.81
2022-10-29T22:33:47.328Z,97019.28
2022-10-29T22:36:22.126Z,97021.34
2022-10-29T22:38:57.530Z,97025.00
2022-10-29T22:41:28.540Z,97018.06
2022-10-29T22:43:58.787Z,97015.63
2022-10-29T22:46:26.960Z,97012.34
2022-10-29T22:48:53.927Z,97001.59
2022-10-29T22:51:24.520Z,97012.16
2022-10-29T22:53:52.768Z,97006.88
2022-10-29T22:56:32.707Z,97007.88
2022-10-29T22:58:59.992Z,97011.16
2022-10-29T23:01:29.855Z,97005.69
2022-10-29T23:03:58.664Z,97012.19
2022-10-29T23:06:26.271Z,97013.63
2022-10-29T23:08:56.711Z,97016.22
2022-10-29T23:11:26.609Z,97011.56
2022-10-29T23:14:03.598Z,97014.44
2022-10-29T23:16:32.663Z,97007.47
2022-10-29T23:19:02.642Z,97015.22
2022-10-29T23:21:29.849Z,97009.53
2022-10-29T23:23:57.758Z,97010.31
2022-10-29T23:26:25.754Z,97012.38
2022-10-29T23:28:52.550Z,97007.47
2022-10-29T23:31:25.697Z,97006.25
2022-10-29T23:33:55.071Z,97003.81
2022-10-29T23:36:24.396Z,97006.25
2022-10-29T23:38:59.867Z,97009.09
2022-10-29T23:41:30.978Z,97012.75
2022-10-29T23:43:58.338Z,97009.09
2022-10-29T23:46:25.163Z,97012.75
2022-10-29T23:48:51.985Z,97007.47
2022-10-29T23:51:19.109Z,97009.91
2022-10-29T23:53:45.972Z,97011.53
2022-10-29T23:56:12.742Z,97006.66
2022-10-29T23:58:39.507Z,96997.09
